sensor_id;sensor_type;location;lat;lon;timestamp;P1;durP1;ratioP1;P2;durP2;ratioP2
43664;SDS011;29263;48.172;11.484;2023-12-20T00:02:17;3.63;;;2.00;;
43664;SDS011;29263;48.172;11.484;2023-12-20T00:04:42;8.73;;;4.63;;
43664;SDS011;29263;48.172;11.484;2023-12-20T00:07:08;20.77;;;9.20;;
43664;SDS011;29263;48.172;11.484;2023-12-20T00:09:33;22.83;;;11.07;;
43664;SDS011;29263;48.172;11.484;2023-12-20T00:11:59;8.27;;;4.40;;
43664;SDS011;29263;48.172;11.484;2023-12-20T00:14:25;13.70;;;5.20;;
43664;SDS011;29263;48.172;11.484;2023-12-20T00:16:50;19.47;;;6.17;;
43664;SDS011;29263;48.172;11.484;2023-12-20T00:19:16;17.43;;;5.70;;
43664;SDS011;29263;48.172;11.484;2023-12-20T00:21:42;5.87;;;2.83;;
43664;SDS011;29263;48.172;11.484;2023-12-20T00:24:07;3.67;;;1.53;;
43664;SDS011;29263;48.172;11.484;2023-12-20T00:26:33;3.03;;;1.50;;
43664;SDS011;29263;48.172;11.484;2023-12-20T00:28:59;3.13;;;1.60;;
43664;SDS011;29263;48.172;11.484;2023-12-20T00:31:25;1.80;;;1.20;;
43664;SDS011;29263;48.172;11.484;2023-12-20T00:33:50;2.33;;;1.30;;
43664;SDS011;29263;48.172;11.484;2023-12-20T00:36:16;1.63;;;1.20;;
43664;SDS011;29263;48.172;11.484;2023-12-20T00:38:41;4.70;;;1.30;;
43664;SDS011;29263;48.172;11.484;2023-12-20T00:41:07;3.17;;;1.47;;
43664;SDS011;29263;48.172;11.484;2023-12-20T00:43:33;2.00;;;1.17;;
43664;SDS011;29263;48.172;11.484;2023-12-20T00:45:58;2.23;;;1.00;;
43664;SDS011;29263;48.172;11.484;2023-12-20T00:48:25;2.17;;;1.07;;
43664;SDS011;29263;48.172;11.484;2023-12-20T00:50:52;2.43;;;1.20;;
43664;SDS011;29263;48.172;11.484;2023-12-20T00:53:18;1.73;;;1.03;;
43664;SDS011;29263;48.172;11.484;2023-12-20T00:55:43;1.80;;;1.30;;
43664;SDS011;29263;48.172;11.484;2023-12-20T00:58:10;1.30;;;1.00;;
43664;SDS011;29263;48.172;11.484;2023-12-20T01:00:35;1.53;;;1.10;;
43664;SDS011;29263;48.172;11.484;2023-12-20T01:03:01;2.10;;;0.90;;
43664;SDS011;29263;48.172;11.484;2023-12-20T01:05:27;2.00;;;0.90;;
43664;SDS011;29263;48.172;11.484;2023-12-20T01:07:52;1.73;;;1.10;;
43664;SDS011;29263;48.172;11.484;2023-12-20T01:10:18;1.10;;;0.67;;
43664;SDS011;29263;48.172;11.484;2023-12-20T01:12:43;1.37;;;0.90;;
43664;SDS011;29263;48.172;11.484;2023-12-20T01:15:09;1.47;;;1.00;;
43664;SDS011;29263;48.172;11.484;2023-12-20T01:17:35;1.67;;;1.00;;
43664;SDS011;29263;48.172;11.484;2023-12-20T01:20:01;1.27;;;0.80;;
43664;SDS011;29263;48.172;11.484;2023-12-20T01:22:27;1.07;;;0.70;;
43664;SDS011;29263;48.172;11.484;2023-12-20T01:24:52;1.90;;;1.20;;
43664;SDS011;29263;48.172;11.484;2023-12-20T01:27:18;1.73;;;1.00;;
43664;SDS011;29263;48.172;11.484;2023-12-20T01:29:44;1.43;;;0.90;;
43664;SDS011;29263;48.172;11.484;2023-12-20T01:32:09;1.90;;;0.90;;
43664;SDS011;29263;48.172;11.484;2023-12-20T01:34:35;1.63;;;0.70;;
43664;SDS011;29263;48.172;11.484;2023-12-20T01:37:01;1.60;;;0.80;;
43664;SDS011;29263;48.172;11.484;2023-12-20T01:39:27;1.43;;;0.60;;
43664;SDS011;29263;48.172;11.484;2023-12-20T01:41:53;1.43;;;0.80;;
43664;SDS011;29263;48.172;11.484;2023-12-20T01:44:18;0.80;;;0.60;;
43664;SDS011;29263;48.172;11.484;2023-12-20T01:46:44;0.93;;;0.63;;
43664;SDS011;29263;48.172;11.484;2023-12-20T01:49:11;3.73;;;0.70;;
43664;SDS011;29263;48.172;11.484;2023-12-20T01:51:37;2.13;;;0.77;;
43664;SDS011;29263;48.172;11.484;2023-12-20T01:54:03;1.10;;;0.70;;
43664;SDS011;29263;48.172;11.484;2023-12-20T01:56:29;0.83;;;0.70;;
43664;SDS011;29263;48.172;11.484;2023-12-20T01:58:56;1.17;;;0.97;;
43664;SDS011;29263;48.172;11.484;2023-12-20T02:01:22;1.03;;;0.80;;
43664;SDS011;29263;48.172;11.484;2023-12-20T02:03:49;0.80;;;0.60;;
43664;SDS011;29263;48.172;11.484;2023-12-20T02:06:15;0.40;;;0.40;;
43664;SDS011;29263;48.172;11.484;2023-12-20T02:08:42;1.03;;;0.50;;
43664;SDS011;29263;48.172;11.484;2023-12-20T02:11:08;0.87;;;0.77;;
43664;SDS011;29263;48.172;11.484;2023-12-20T02:13:34;1.07;;;0.80;;
43664;SDS011;29263;48.172;11.484;2023-12-20T02:16:00;1.70;;;0.57;;
43664;SDS011;29263;48.172;11.484;2023-12-20T02:18:25;0.90;;;0.60;;
43664;SDS011;29263;48.172;11.484;2023-12-20T02:20:51;0.90;;;0.60;;
43664;SDS011;29263;48.172;11.484;2023-12-20T02:23:18;0.70;;;0.60;;
43664;SDS011;29263;48.172;11.484;2023-12-20T02:25:43;0.70;;;0.60;;
43664;SDS011;29263;48.172;11.484;2023-12-20T02:28:09;0.60;;;0.50;;
43664;SDS011;29263;48.172;11.484;2023-12-20T02:30:34;1.40;;;0.60;;
43664;SDS011;29263;48.172;11.484;2023-12-20T02:33:00;0.97;;;0.50;;
43664;SDS011;29263;48.172;11.484;2023-12-20T02:35:27;0.80;;;0.30;;
43664;SDS011;29263;48.172;11.484;2023-12-20T02:37:52;0.70;;;0.60;;
43664;SDS011;29263;48.172;11.484;2023-12-20T02:40:19;0.40;;;0.40;;
43664;SDS011;29263;48.172;11.484;2023-12-20T02:42:45;0.67;;;0.40;;
43664;SDS011;29263;48.172;11.484;2023-12-20T02:45:10;0.80;;;0.50;;
43664;SDS011;29263;48.172;11.484;2023-12-20T02:47:36;0.70;;;0.50;;
43664;SDS011;29263;48.172;11.484;2023-12-20T02:50:01;0.73;;;0.40;;
43664;SDS011;29263;48.172;11.484;2023-12-20T02:52:28;0.70;;;0.40;;
43664;SDS011;29263;48.172;11.484;2023-12-20T02:54:54;0.30;;;0.30;;
43664;SDS011;29263;48.172;11.484;2023-12-20T02:57:19;0.60;;;0.40;;
43664;SDS011;29263;48.172;11.484;2023-12-20T02:59:45;0.57;;;0.43;;
43664;SDS011;29263;48.172;11.484;2023-12-20T03:02:10;1.80;;;0.40;;
43664;SDS011;29263;48.172;11.484;2023-12-20T03:04:36;0.60;;;0.40;;
43664;SDS011;29263;48.172;11.484;2023-12-20T03:07:01;0.47;;;0.23;;
43664;SDS011;29263;48.172;11.484;2023-12-20T03:09:27;0.60;;;0.50;;
43664;SDS011;29263;48.172;11.484;2023-12-20T03:11:53;0.60;;;0.50;;
43664;SDS011;29263;48.172;11.484;2023-12-20T03:14:18;1.90;;;0.40;;
43664;SDS011;29263;48.172;11.484;2023-12-20T03:16:49;0.53;;;0.30;;
43664;SDS011;29263;48.172;11.484;2023-12-20T03:19:15;0.47;;;0.40;;
43664;SDS011;29263;48.172;11.484;2023-12-20T03:21:41;0.70;;;0.30;;
43664;SDS011;29263;48.172;11.484;2023-12-20T03:24:06;0.30;;;0.30;;
43664;SDS011;29263;48.172;11.484;2023-12-20T03:26:32;0.20;;;0.20;;
43664;SDS011;29263;48.172;11.484;2023-12-20T03:28:57;0.50;;;0.30;;
43664;SDS011;29263;48.172;11.484;2023-12-20T03:31:23;0.77;;;0.33;;
43664;SDS011;29263;48.172;11.484;2023-12-20T03:33:49;1.03;;;0.30;;
43664;SDS011;29263;48.172;11.484;2023-12-20T03:36:16;0.83;;;0.40;;
43664;SDS011;29263;48.172;11.484;2023-12-20T03:38:41;1.27;;;0.50;;
43664;SDS011;29263;48.172;11.484;2023-12-20T03:41:07;0.33;;;0.20;;
43664;SDS011;29263;48.172;11.484;2023-12-20T03:43:33;0.57;;;0.30;;
43664;SDS011;29263;48.172;11.484;2023-12-20T03:45:58;0.53;;;0.40;;
43664;SDS011;29263;48.172;11.484;2023-12-20T03:48:25;0.47;;;0.30;;
43664;SDS011;29263;48.172;11.484;2023-12-20T03:50:50;3.70;;;0.40;;
43664;SDS011;29263;48.172;11.484;2023-12-20T03:53:16;0.43;;;0.30;;
43664;SDS011;29263;48.172;11.484;2023-12-20T03:55:41;0.57;;;0.40;;
43664;SDS011;29263;48.172;11.484;2023-12-20T03:58:07;0.67;;;0.43;;
43664;SDS011;29263;48.172;11.484;2023-12-20T04:00:33;0.57;;;0.40;;
43664;SDS011;29263;48.172;11.484;2023-12-20T04:02:58;0.87;;;0.50;;
43664;SDS011;29263;48.172;11.484;2023-12-20T04:05:24;0.50;;;0.30;;
43664;SDS011;29263;48.172;11.484;2023-12-20T04:07:49;0.40;;;0.23;;
43664;SDS011;29263;48.172;11.484;2023-12-20T04:10:15;0.47;;;0.47;;
43664;SDS011;29263;48.172;11.484;2023-12-20T04:12:41;0.50;;;0.40;;
43664;SDS011;29263;48.172;11.484;2023-12-20T04:15:07;0.80;;;0.43;;
43664;SDS011;29263;48.172;11.484;2023-12-20T04:17:34;0.50;;;0.40;;
43664;SDS011;29263;48.172;11.484;2023-12-20T04:20:01;0.50;;;0.40;;
43664;SDS011;29263;48.172;11.484;2023-12-20T04:22:27;0.37;;;0.37;;
43664;SDS011;29263;48.172;11.484;2023-12-20T04:24:53;0.33;;;0.33;;
43664;SDS011;29263;48.172;11.484;2023-12-20T04:27:18;0.80;;;0.40;;
43664;SDS011;29263;48.172;11.484;2023-12-20T04:29:44;0.90;;;0.70;;
43664;SDS011;29263;48.172;11.484;2023-12-20T04:32:09;0.50;;;0.50;;
43664;SDS011;29263;48.172;11.484;2023-12-20T04:34:35;0.87;;;0.63;;
43664;SDS011;29263;48.172;11.484;2023-12-20T04:37:01;1.43;;;0.60;;
43664;SDS011;29263;48.172;11.484;2023-12-20T04:39:27;1.37;;;0.60;;
43664;SDS011;29263;48.172;11.484;2023-12-20T04:41:52;0.80;;;0.53;;
43664;SDS011;29263;48.172;11.484;2023-12-20T04:44:18;0.53;;;0.50;;
43664;SDS011;29263;48.172;11.484;2023-12-20T04:46:44;0.70;;;0.50;;
43664;SDS011;29263;48.172;11.484;2023-12-20T04:49:09;0.80;;;0.50;;
43664;SDS011;29263;48.172;11.484;2023-12-20T04:51:35;1.07;;;0.70;;
43664;SDS011;29263;48.172;11.484;2023-12-20T04:54:01;1.00;;;0.60;;
43664;SDS011;29263;48.172;11.484;2023-12-20T04:56:27;1.10;;;0.80;;
43664;SDS011;29263;48.172;11.484;2023-12-20T04:58:53;1.73;;;0.97;;
43664;SDS011;29263;48.172;11.484;2023-12-20T05:01:18;1.50;;;1.10;;
43664;SDS011;29263;48.172;11.484;2023-12-20T05:03:44;1.80;;;0.87;;
43664;SDS011;29263;48.172;11.484;2023-12-20T05:06:10;1.33;;;1.03;;
43664;SDS011;29263;48.172;11.484;2023-12-20T05:08:35;1.57;;;1.10;;
43664;SDS011;29263;48.172;11.484;2023-12-20T05:11:01;1.37;;;1.00;;
43664;SDS011;29263;48.172;11.484;2023-12-20T05:13:27;1.70;;;1.10;;
43664;SDS011;29263;48.172;11.484;2023-12-20T05:15:53;1.57;;;1.17;;
43664;SDS011;29263;48.172;11.484;2023-12-20T05:18:18;2.77;;;1.20;;
43664;SDS011;29263;48.172;11.484;2023-12-20T05:20:45;2.33;;;1.30;;
43664;SDS011;29263;48.172;11.484;2023-12-20T05:23:11;3.60;;;1.53;;
43664;SDS011;29263;48.172;11.484;2023-12-20T05:25:38;2.27;;;1.60;;
43664;SDS011;29263;48.172;11.484;2023-12-20T05:28:04;1.77;;;1.50;;
43664;SDS011;29263;48.172;11.484;2023-12-20T05:30:30;3.33;;;1.40;;
43664;SDS011;29263;48.172;11.484;2023-12-20T05:32:55;2.37;;;1.60;;
43664;SDS011;29263;48.172;11.484;2023-12-20T05:35:21;2.83;;;1.30;;
43664;SDS011;29263;48.172;11.484;2023-12-20T05:37:48;2.00;;;1.43;;
43664;SDS011;29263;48.172;11.484;2023-12-20T05:40:14;1.87;;;1.40;;
43664;SDS011;29263;48.172;11.484;2023-12-20T05:42:40;1.70;;;1.30;;
43664;SDS011;29263;48.172;11.484;2023-12-20T05:45:06;3.63;;;1.70;;
43664;SDS011;29263;48.172;11.484;2023-12-20T05:47:31;5.40;;;1.40;;
43664;SDS011;29263;48.172;11.484;2023-12-20T05:49:57;1.80;;;1.37;;
43664;SDS011;29263;48.172;11.484;2023-12-20T05:52:23;2.03;;;1.23;;
43664;SDS011;29263;48.172;11.484;2023-12-20T05:54:49;1.87;;;1.30;;
43664;SDS011;29263;48.172;11.484;2023-12-20T05:57:14;1.67;;;1.20;;
43664;SDS011;29263;48.172;11.484;2023-12-20T05:59:40;1.70;;;1.20;;
43664;SDS011;29263;48.172;11.484;2023-12-20T06:02:06;3.43;;;1.60;;
43664;SDS011;29263;48.172;11.484;2023-12-20T06:04:31;2.27;;;1.40;;
43664;SDS011;29263;48.172;11.484;2023-12-20T06:06:57;2.10;;;1.40;;
43664;SDS011;29263;48.172;11.484;2023-12-20T06:09:23;1.93;;;1.20;;
43664;SDS011;29263;48.172;11.484;2023-12-20T06:11:49;2.13;;;1.33;;
43664;SDS011;29263;48.172;11.484;2023-12-20T06:14:14;2.17;;;1.47;;
43664;SDS011;29263;48.172;11.484;2023-12-20T06:16:40;1.60;;;1.30;;
43664;SDS011;29263;48.172;11.484;2023-12-20T06:19:05;2.93;;;1.40;;
43664;SDS011;29263;48.172;11.484;2023-12-20T06:21:31;2.23;;;1.30;;
43664;SDS011;29263;48.172;11.484;2023-12-20T06:23:58;2.33;;;1.33;;
43664;SDS011;29263;48.172;11.484;2023-12-20T06:26:24;1.87;;;1.37;;
43664;SDS011;29263;48.172;11.484;2023-12-20T06:28:50;2.40;;;1.40;;
43664;SDS011;29263;48.172;11.484;2023-12-20T06:31:15;1.70;;;1.50;;
43664;SDS011;29263;48.172;11.484;2023-12-20T06:33:42;1.93;;;1.40;;
43664;SDS011;29263;48.172;11.484;2023-12-20T06:36:10;1.70;;;1.13;;
43664;SDS011;29263;48.172;11.484;2023-12-20T06:38:38;1.50;;;1.30;;
43664;SDS011;29263;48.172;11.484;2023-12-20T06:41:03;4.53;;;1.60;;
43664;SDS011;29263;48.172;11.484;2023-12-20T06:43:29;2.20;;;1.20;;
43664;SDS011;29263;48.172;11.484;2023-12-20T06:45:56;2.33;;;1.60;;
43664;SDS011;29263;48.172;11.484;2023-12-20T06:48:21;1.80;;;1.20;;
43664;SDS011;29263;48.172;11.484;2023-12-20T06:50:47;1.70;;;1.30;;
43664;SDS011;29263;48.172;11.484;2023-12-20T06:53:13;1.67;;;1.43;;
43664;SDS011;29263;48.172;11.484;2023-12-20T06:55:38;2.23;;;1.53;;
43664;SDS011;29263;48.172;11.484;2023-12-20T06:58:04;2.00;;;1.30;;
43664;SDS011;29263;48.172;11.484;2023-12-20T07:00:30;2.40;;;1.87;;
43664;SDS011;29263;48.172;11.484;2023-12-20T07:02:56;2.20;;;1.00;;
43664;SDS011;29263;48.172;11.484;2023-12-20T07:05:21;2.80;;;1.30;;
43664;SDS011;29263;48.172;11.484;2023-12-20T07:07:47;1.13;;;1.00;;
43664;SDS011;29263;48.172;11.484;2023-12-20T07:10:13;1.43;;;1.10;;
43664;SDS011;29263;48.172;11.484;2023-12-20T07:12:38;1.20;;;0.90;;
43664;SDS011;29263;48.172;11.484;2023-12-20T07:15:04;1.63;;;1.00;;
43664;SDS011;29263;48.172;11.484;2023-12-20T07:17:34;0.77;;;0.77;;
43664;SDS011;29263;48.172;11.484;2023-12-20T07:20:00;1.77;;;0.90;;
43664;SDS011;29263;48.172;11.484;2023-12-20T07:22:32;2.50;;;1.00;;
43664;SDS011;29263;48.172;11.484;2023-12-20T07:24:58;1.33;;;0.90;;
43664;SDS011;29263;48.172;11.484;2023-12-20T07:27:24;1.50;;;0.67;;
43664;SDS011;29263;48.172;11.484;2023-12-20T07:29:50;2.47;;;0.97;;
43664;SDS011;29263;48.172;11.484;2023-12-20T07:32:16;1.17;;;0.80;;
43664;SDS011;29263;48.172;11.484;2023-12-20T07:34:41;2.60;;;0.60;;
43664;SDS011;29263;48.172;11.484;2023-12-20T07:37:07;1.40;;;0.90;;
43664;SDS011;29263;48.172;11.484;2023-12-20T07:39:35;0.80;;;0.40;;
43664;SDS011;29263;48.172;11.484;2023-12-20T07:42:01;0.60;;;0.60;;
43664;SDS011;29263;48.172;11.484;2023-12-20T07:44:26;0.87;;;0.50;;
43664;SDS011;29263;48.172;11.484;2023-12-20T07:46:52;0.60;;;0.53;;
43664;SDS011;29263;48.172;11.484;2023-12-20T07:49:18;0.63;;;0.53;;
43664;SDS011;29263;48.172;11.484;2023-12-20T07:51:44;3.33;;;1.20;;
43664;SDS011;29263;48.172;11.484;2023-12-20T07:54:09;0.60;;;0.50;;
43664;SDS011;29263;48.172;11.484;2023-12-20T07:56:35;0.40;;;0.40;;
43664;SDS011;29263;48.172;11.484;2023-12-20T07:59:01;2.30;;;0.60;;
43664;SDS011;29263;48.172;11.484;2023-12-20T08:01:26;1.53;;;0.80;;
43664;SDS011;29263;48.172;11.484;2023-12-20T08:03:52;0.93;;;0.80;;
43664;SDS011;29263;48.172;11.484;2023-12-20T08:06:18;1.00;;;0.60;;
43664;SDS011;29263;48.172;11.484;2023-12-20T08:08:43;0.37;;;0.37;;
43664;SDS011;29263;48.172;11.484;2023-12-20T08:11:09;0.60;;;0.40;;
43664;SDS011;29263;48.172;11.484;2023-12-20T08:13:34;0.87;;;0.60;;
43664;SDS011;29263;48.172;11.484;2023-12-20T08:16:00;0.80;;;0.33;;
43664;SDS011;29263;48.172;11.484;2023-12-20T08:18:28;0.50;;;0.50;;
43664;SDS011;29263;48.172;11.484;2023-12-20T08:20:53;0.60;;;0.40;;
43664;SDS011;29263;48.172;11.484;2023-12-20T08:23:19;0.57;;;0.40;;
43664;SDS011;29263;48.172;11.484;2023-12-20T08:25:46;1.93;;;0.60;;
43664;SDS011;29263;48.172;11.484;2023-12-20T08:28:12;0.70;;;0.50;;
43664;SDS011;29263;48.172;11.484;2023-12-20T08:30:37;0.57;;;0.40;;
43664;SDS011;29263;48.172;11.484;2023-12-20T08:33:03;0.73;;;0.30;;
43664;SDS011;29263;48.172;11.484;2023-12-20T08:35:29;0.33;;;0.23;;
43664;SDS011;29263;48.172;11.484;2023-12-20T08:37:55;0.40;;;0.40;;
43664;SDS011;29263;48.172;11.484;2023-12-20T08:40:21;0.90;;;0.60;;
43664;SDS011;29263;48.172;11.484;2023-12-20T08:42:46;0.47;;;0.33;;
43664;SDS011;29263;48.172;11.484;2023-12-20T08:45:12;0.87;;;0.47;;
43664;SDS011;29263;48.172;11.484;2023-12-20T08:47:38;0.33;;;0.33;;
43664;SDS011;29263;48.172;11.484;2023-12-20T08:50:03;0.40;;;0.30;;
43664;SDS011;29263;48.172;11.484;2023-12-20T08:52:29;0.70;;;0.40;;
43664;SDS011;29263;48.172;11.484;2023-12-20T08:54:55;0.50;;;0.40;;
43664;SDS011;29263;48.172;11.484;2023-12-20T08:57:21;0.30;;;0.30;;
43664;SDS011;29263;48.172;11.484;2023-12-20T08:59:48;0.73;;;0.50;;
43664;SDS011;29263;48.172;11.484;2023-12-20T09:02:14;0.70;;;0.50;;
43664;SDS011;29263;48.172;11.484;2023-12-20T09:04:41;0.50;;;0.40;;
43664;SDS011;29263;48.172;11.484;2023-12-20T09:07:06;0.70;;;0.50;;
43664;SDS011;29263;48.172;11.484;2023-12-20T09:09:32;2.20;;;0.50;;
43664;SDS011;29263;48.172;11.484;2023-12-20T09:11:58;1.23;;;0.60;;
43664;SDS011;29263;48.172;11.484;2023-12-20T09:14:24;0.60;;;0.40;;
43664;SDS011;29263;48.172;11.484;2023-12-20T09:16:49;1.67;;;0.70;;
43664;SDS011;29263;48.172;11.484;2023-12-20T09:19:16;0.60;;;0.50;;
43664;SDS011;29263;48.172;11.484;2023-12-20T09:21:42;0.40;;;0.40;;
43664;SDS011;29263;48.172;11.484;2023-12-20T09:24:08;0.63;;;0.50;;
43664;SDS011;29263;48.172;11.484;2023-12-20T09:26:34;0.80;;;0.57;;
43664;SDS011;29263;48.172;11.484;2023-12-20T09:29:00;0.90;;;0.50;;
43664;SDS011;29263;48.172;11.484;2023-12-20T09:31:25;0.90;;;0.53;;
43664;SDS011;29263;48.172;11.484;2023-12-20T09:33:51;0.60;;;0.47;;
43664;SDS011;29263;48.172;11.484;2023-12-20T09:36:17;1.10;;;0.43;;
43664;SDS011;29263;48.172;11.484;2023-12-20T09:38:43;0.53;;;0.43;;
43664;SDS011;29263;48.172;11.484;2023-12-20T09:41:08;0.40;;;0.40;;
43664;SDS011;29263;48.172;11.484;2023-12-20T09:43:35;0.70;;;0.50;;
43664;SDS011;29263;48.172;11.484;2023-12-20T09:46:02;1.93;;;0.50;;
43664;SDS011;29263;48.172;11.484;2023-12-20T09:48:32;0.47;;;0.47;;
43664;SDS011;29263;48.172;11.484;2023-12-20T09:50:58;1.40;;;0.50;;
43664;SDS011;29263;48.172;11.484;2023-12-20T09:53:24;0.30;;;0.30;;
43664;SDS011;29263;48.172;11.484;2023-12-20T09:55:55;0.37;;;0.30;;
43664;SDS011;29263;48.172;11.484;2023-12-20T09:58:26;0.60;;;0.40;;
43664;SDS011;29263;48.172;11.484;2023-12-20T10:00:52;1.97;;;0.63;;
43664;SDS011;29263;48.172;11.484;2023-12-20T10:03:19;0.83;;;0.57;;
43664;SDS011;29263;48.172;11.484;2023-12-20T10:05:50;0.73;;;0.63;;
43664;SDS011;29263;48.172;11.484;2023-12-20T10:08:20;0.57;;;0.50;;
43664;SDS011;29263;48.172;11.484;2023-12-20T10:10:47;0.70;;;0.50;;
43664;SDS011;29263;48.172;11.484;2023-12-20T10:13:15;0.50;;;0.50;;
43664;SDS011;29263;48.172;11.484;2023-12-20T10:15:41;0.87;;;0.70;;
43664;SDS011;29263;48.172;11.484;2023-12-20T10:18:06;0.70;;;0.70;;
43664;SDS011;29263;48.172;11.484;2023-12-20T10:20:33;0.50;;;0.50;;
43664;SDS011;29263;48.172;11.484;2023-12-20T10:22:59;1.13;;;0.60;;
43664;SDS011;29263;48.172;11.484;2023-12-20T10:25:25;2.00;;;0.60;;
43664;SDS011;29263;48.172;11.484;2023-12-20T10:28:08;1.27;;;0.70;;
43664;SDS011;29263;48.172;11.484;2023-12-20T10:30:46;0.70;;;0.60;;
43664;SDS011;29263;48.172;11.484;2023-12-20T10:33:11;1.60;;;0.60;;
43664;SDS011;29263;48.172;11.484;2023-12-20T10:35:37;1.03;;;0.70;;
43664;SDS011;29263;48.172;11.484;2023-12-20T10:38:04;0.60;;;0.60;;
43664;SDS011;29263;48.172;11.484;2023-12-20T10:40:31;0.60;;;0.50;;
43664;SDS011;29263;48.172;11.484;2023-12-20T10:42:59;1.13;;;0.60;;
43664;SDS011;29263;48.172;11.484;2023-12-20T10:45:27;0.90;;;0.73;;
43664;SDS011;29263;48.172;11.484;2023-12-20T10:47:52;0.70;;;0.70;;
43664;SDS011;29263;48.172;11.484;2023-12-20T10:50:19;0.90;;;0.73;;
43664;SDS011;29263;48.172;11.484;2023-12-20T10:52:45;0.83;;;0.53;;
43664;SDS011;29263;48.172;11.484;2023-12-20T10:55:12;0.60;;;0.60;;
43664;SDS011;29263;48.172;11.484;2023-12-20T10:57:38;0.80;;;0.70;;
43664;SDS011;29263;48.172;11.484;2023-12-20T11:00:06;0.70;;;0.60;;
43664;SDS011;29263;48.172;11.484;2023-12-20T11:02:39;0.83;;;0.50;;
43664;SDS011;29263;48.172;11.484;2023-12-20T11:07:48;1.33;;;0.70;;
43664;SDS011;29263;48.172;11.484;2023-12-20T11:10:35;2.20;;;0.90;;
43664;SDS011;29263;48.172;11.484;2023-12-20T11:13:16;1.33;;;0.80;;
43664;SDS011;29263;48.172;11.484;2023-12-20T11:15:47;1.00;;;0.80;;
43664;SDS011;29263;48.172;11.484;2023-12-20T11:18:13;1.00;;;0.80;;
43664;SDS011;29263;48.172;11.484;2023-12-20T11:20:41;1.27;;;0.60;;
43664;SDS011;29263;48.172;11.484;2023-12-20T11:23:07;0.60;;;0.60;;
43664;SDS011;29263;48.172;11.484;2023-12-20T11:25:45;1.63;;;0.93;;
43664;SDS011;29263;48.172;11.484;2023-12-20T11:28:16;0.60;;;0.53;;
43664;SDS011;29263;48.172;11.484;2023-12-20T11:30:47;1.73;;;0.90;;
43664;SDS011;29263;48.172;11.484;2023-12-20T11:33:17;0.90;;;0.77;;
43664;SDS011;29263;48.172;11.484;2023-12-20T11:35:50;0.80;;;0.70;;
43664;SDS011;29263;48.172;11.484;2023-12-20T11:38:16;0.80;;;0.80;;
43664;SDS011;29263;48.172;11.484;2023-12-20T11:40:44;0.80;;;0.70;;
43664;SDS011;29263;48.172;11.484;2023-12-20T11:43:29;1.58;;;1.08;;
43664;SDS011;29263;48.172;11.484;2023-12-20T11:46:06;1.23;;;0.83;;
43664;SDS011;29263;48.172;11.484;2023-12-20T11:48:42;1.20;;;1.00;;
43664;SDS011;29263;48.172;11.484;2023-12-20T11:51:10;1.03;;;0.83;;
43664;SDS011;29263;48.172;11.484;2023-12-20T11:53:37;1.03;;;0.70;;
43664;SDS011;29263;48.172;11.484;2023-12-20T11:56:04;0.90;;;0.70;;
43664;SDS011;29263;48.172;11.484;2023-12-20T11:58:33;0.73;;;0.73;;
43664;SDS011;29263;48.172;11.484;2023-12-20T12:00:59;1.00;;;0.90;;
43664;SDS011;29263;48.172;11.484;2023-12-20T12:03:25;1.63;;;0.70;;
43664;SDS011;29263;48.172;11.484;2023-12-20T12:05:51;1.17;;;0.80;;
43664;SDS011;29263;48.172;11.484;2023-12-20T12:08:17;1.37;;;0.87;;
43664;SDS011;29263;48.172;11.484;2023-12-20T12:10:43;1.40;;;0.83;;
43664;SDS011;29263;48.172;11.484;2023-12-20T12:13:09;1.77;;;0.80;;
43664;SDS011;29263;48.172;11.484;2023-12-20T12:15:35;0.70;;;0.63;;
43664;SDS011;29263;48.172;11.484;2023-12-20T12:18:02;2.30;;;0.87;;
43664;SDS011;29263;48.172;11.484;2023-12-20T12:20:28;1.10;;;0.80;;
43664;SDS011;29263;48.172;11.484;2023-12-20T12:22:58;1.00;;;0.70;;
43664;SDS011;29263;48.172;11.484;2023-12-20T12:25:24;0.53;;;0.50;;
43664;SDS011;29263;48.172;11.484;2023-12-20T12:27:50;1.27;;;0.77;;
43664;SDS011;29263;48.172;11.484;2023-12-20T12:30:16;1.57;;;0.90;;
43664;SDS011;29263;48.172;11.484;2023-12-20T12:32:43;2.20;;;0.87;;
43664;SDS011;29263;48.172;11.484;2023-12-20T12:35:09;1.23;;;0.83;;
43664;SDS011;29263;48.172;11.484;2023-12-20T12:37:35;2.60;;;0.60;;
43664;SDS011;29263;48.172;11.484;2023-12-20T12:40:04;0.80;;;0.60;;
43664;SDS011;29263;48.172;11.484;2023-12-20T12:42:31;0.87;;;0.70;;
43664;SDS011;29263;48.172;11.484;2023-12-20T12:44:57;1.00;;;0.67;;
43664;SDS011;29263;48.172;11.484;2023-12-20T12:47:22;0.83;;;0.70;;
43664;SDS011;29263;48.172;11.484;2023-12-20T12:49:49;1.17;;;0.90;;
43664;SDS011;29263;48.172;11.484;2023-12-20T12:52:17;1.00;;;0.90;;
43664;SDS011;29263;48.172;11.484;2023-12-20T12:54:42;0.90;;;0.90;;
43664;SDS011;29263;48.172;11.484;2023-12-20T12:57:09;1.70;;;0.90;;
43664;SDS011;29263;48.172;11.484;2023-12-20T12:59:36;1.30;;;1.07;;
43664;SDS011;29263;48.172;11.484;2023-12-20T13:02:01;1.17;;;1.00;;
43664;SDS011;29263;48.172;11.484;2023-12-20T13:04:27;1.47;;;0.80;;
43664;SDS011;29263;48.172;11.484;2023-12-20T13:06:53;1.73;;;0.93;;
43664;SDS011;29263;48.172;11.484;2023-12-20T13:09:18;1.57;;;0.87;;
43664;SDS011;29263;48.172;11.484;2023-12-20T13:11:44;0.83;;;0.67;;
43664;SDS011;29263;48.172;11.484;2023-12-20T13:14:10;5.03;;;1.17;;
43664;SDS011;29263;48.172;11.484;2023-12-20T13:19:06;1.07;;;0.80;;
43664;SDS011;29263;48.172;11.484;2023-12-20T13:21:32;0.67;;;0.67;;
43664;SDS011;29263;48.172;11.484;2023-12-20T13:23:57;1.40;;;1.10;;
43664;SDS011;29263;48.172;11.484;2023-12-20T13:26:23;2.53;;;0.90;;
43664;SDS011;29263;48.172;11.484;2023-12-20T13:28:48;1.47;;;0.77;;
43664;SDS011;29263;48.172;11.484;2023-12-20T13:31:14;0.90;;;0.70;;
43664;SDS011;29263;48.172;11.484;2023-12-20T13:33:39;1.60;;;0.97;;
43664;SDS011;29263;48.172;11.484;2023-12-20T13:36:05;3.27;;;1.20;;
43664;SDS011;29263;48.172;11.484;2023-12-20T13:38:31;4.40;;;1.23;;
43664;SDS011;29263;48.172;11.484;2023-12-20T13:40:57;1.40;;;1.00;;
43664;SDS011;29263;48.172;11.484;2023-12-20T13:43:23;1.43;;;0.80;;
43664;SDS011;29263;48.172;11.484;2023-12-20T13:45:49;2.53;;;1.03;;
43664;SDS011;29263;48.172;11.484;2023-12-20T13:48:16;1.07;;;0.93;;
43664;SDS011;29263;48.172;11.484;2023-12-20T13:50:41;2.33;;;1.27;;
43664;SDS011;29263;48.172;11.484;2023-12-20T13:53:07;1.60;;;0.97;;
43664;SDS011;29263;48.172;11.484;2023-12-20T13:55:32;2.00;;;1.40;;
43664;SDS011;29263;48.172;11.484;2023-12-20T13:57:58;2.67;;;1.13;;
43664;SDS011;29263;48.172;11.484;2023-12-20T14:00:24;1.13;;;0.97;;
43664;SDS011;29263;48.172;11.484;2023-12-20T14:02:49;1.60;;;0.90;;
43664;SDS011;29263;48.172;11.484;2023-12-20T14:05:16;4.03;;;1.10;;
43664;SDS011;29263;48.172;11.484;2023-12-20T14:07:45;1.87;;;1.33;;
43664;SDS011;29263;48.172;11.484;2023-12-20T14:10:11;2.00;;;1.20;;
43664;SDS011;29263;48.172;11.484;2023-12-20T14:12:38;2.13;;;1.20;;
43664;SDS011;29263;48.172;11.484;2023-12-20T14:15:04;3.37;;;0.93;;
43664;SDS011;29263;48.172;11.484;2023-12-20T14:17:34;2.00;;;1.37;;
43664;SDS011;29263;48.172;11.484;2023-12-20T14:20:00;0.93;;;0.70;;
43664;SDS011;29263;48.172;11.484;2023-12-20T14:22:25;6.13;;;1.60;;
43664;SDS011;29263;48.172;11.484;2023-12-20T14:24:51;1.40;;;1.00;;
43664;SDS011;29263;48.172;11.484;2023-12-20T14:27:17;2.10;;;1.33;;
43664;SDS011;29263;48.172;11.484;2023-12-20T14:29:45;4.03;;;1.20;;
43664;SDS011;29263;48.172;11.484;2023-12-20T14:32:11;5.00;;;1.00;;
43664;SDS011;29263;48.172;11.484;2023-12-20T14:34:38;2.03;;;0.80;;